Nearby METAR Reports

 

YMER - Merimbula Arpt, Australia
Distance from station: SE 12km
Updated: 21/09/2020 13:00
Clear
Clear
 Wind from NE
Wind: NE 17 km/h
Temperature: 22°C
Dew Point: 16°C
Humidity: 69%
Barometer: 1004 hPa
Clouds: Clear
2020/09/21 03:00 YMER 210300Z AUTO 05009KT //// // NCD 22/16 Q1004
YCOM - Cooma Snowy Mtns, Australia
Distance from station: NW 96km
Updated: 21/09/2020 13:00
Clear
Clear
 Wind from NW
Wind: NW 28 km/h
Temperature: 22°C
Dew Point: 8°C
Humidity: 41%
Barometer: 1008 hPa
Clouds: Clear
Visibility: 10 km
2020/09/21 03:00 YCOM 210300Z AUTO 31015KT 9999 // NCD 22/08 Q1008
 
YSCB - Canberra (civ/Mi, Australia
Distance from station: NNW 182km
Updated: 21/09/2020 13:00
Partly cloudy
Partly cloudy
 Wind from NNW
Wind: NNW 24 km/h
Temperature: 22°C
Dew Point: 15°C
Humidity: 65%
Barometer: 1009 hPa
Clouds: Partly cloudy
Visibility: 10 km
Cloud details: Partly cloudy 1036 m
2020/09/21 03:00 YSCB 210300Z AUTO 33013KT 9999 // SCT034 22/15 Q1009 INTER 0400/0600 VRB15G25KT 4000 SHRA SCT015
YSNW - Nowra (aus-Navy), Australia
Distance from station: NNE 219km
Updated: 21/09/2020 13:00
Few Clouds
Few Clouds
 Wind from WNW
Wind: WNW 24 km/h
Temperature: 29°C
Dew Point: 10°C
Humidity: 31%
Barometer: 1006 hPa
Clouds: Few Clouds
Visibility: 10 km
Cloud details: Few Clouds 914 m
2020/09/21 03:00 YSNW 210300Z 30013KT 9999 FEW030 29/10 Q1006 NOSIG
 
YMAY - Albury Airport, Australia
Distance from station: WNW 271km
Updated: 21/09/2020 13:00
Clear
Clear
 Wind from N
Wind: N 20 km/h
Temperature: 22°C
Dew Point: 17°C
Humidity: 73%
Barometer: 1006 hPa
Clouds: Clear
Visibility: 10 km
2020/09/21 03:00 YMAY 210300Z AUTO 35011KT 9999 // NCD 22/17 Q1006
YSWG - Wagga Wagga(Cv/M, Australia
Distance from station: NW 283km
Updated: 21/09/2020 13:00
Few Clouds
Few Clouds
 Wind from N
Wind: N 22 km/h
Temperature: 25°C
Dew Point: 15°C
Humidity: 54%
Barometer: 1006 hPa
Clouds: Few Clouds
Visibility: 10 km
Cloud details: Few Clouds 1067 m
2020/09/21 03:00 YSWG 210300Z 35012KT 9999 FEW035 25/15 Q1006
 
YWGT - Wangaratta Arp, Australia
Distance from station: W 317km
Updated: 21/09/2020 13:00
Light rain, Showers, Mostly cloudy
Light rain, Showers, Mostly cloudy
 Wind from NW
Wind: NW 20 km/h
Temperature: 18°C
Dew Point: 15°C
Humidity: 83%
Barometer: 1007 hPa
Summary: Light rain, Showers
Clouds: Mostly cloudy
Visibility: 10 km
Cloud details: Partly cloudy 1067 m
Partly cloudy 2164 m
Mostly cloudy 3018 m
2020/09/21 03:00 YWGT 210300Z AUTO 32011KT 9999 -SHRA SCT035 SCT071 BKN099 18/15 Q1007
YSSY - Sydney Intl Airp, Australia
Distance from station: NNE 343km
Updated: 21/09/2020 13:00
Clear
Clear
 Wind from NNE
Wind: NNE 26 km/h
Temperature: 30°C
Dew Point: 14°C
Humidity: 38%
Barometer: 1008 hPa
Summary: Clear
Visibility: greater than 10 km
2020/09/21 03:00 YSSY 210300Z 03014KT CAVOK 30/14 Q1008 NOSIG